Time;durP1;ratioP1;P1;durP2;ratioP2;P2;SDS_P1;SDS_P2;PMS_P1;PMS_P2;Temp;Humidity;BMP_temperature;BMP_pressure;BME280_temperature;BME280_humidity;BME280_pressure;Samples;Min_cycle;Max_cycle;Signal;HPM_P1;HPM_P2
2021/07/15 00:01:34;;;;;;;0.30;0.10;;;19.20;65.60;;;;;;4916503;28;20036;-84
2021/07/15 00:04:01;;;;;;;0.90;0.10;;;19.20;65.60;;;;;;4947791;29;20425;-84
2021/07/15 00:06:27;;;;;;;0.57;0.20;;;19.10;65.60;;;;;;4914970;29;20047;-84
2021/07/15 00:08:56;;;;;;;0.55;0.10;;;19.20;65.70;;;;;;4915676;29;20406;-84
2021/07/15 00:11:27;;;;;;;0.45;0.30;;;19.10;65.70;;;;;;4916719;29;20040;-83
2021/07/15 00:13:53;;;;;;;0.15;0.00;;;19.20;65.80;;;;;;4932511;29;20054;-84
2021/07/15 00:16:20;;;;;;;0.93;0.35;;;19.20;65.70;;;;;;4916878;28;20054;-84
2021/07/15 00:18:47;;;;;;;3.10;0.10;;;19.20;65.80;;;;;;4916636;29;20043;-85
2021/07/15 00:21:14;;;;;;;0.30;0.05;;;19.20;65.80;;;;;;4930995;29;20028;-84
2021/07/15 00:23:40;;;;;;;1.42;0.30;;;19.20;65.80;;;;;;4930126;29;20032;-85
2021/07/15 00:26:07;;;;;;;0.20;0.15;;;19.10;65.90;;;;;;4915311;29;20372;-86
2021/07/15 00:28:35;;;;;;;2.70;0.40;;;19.10;65.80;;;;;;4913867;29;20403;-85
2021/07/15 00:31:01;;;;;;;1.20;0.15;;;19.10;65.90;;;;;;4914354;28;20039;-84
2021/07/15 00:33:30;;;;;;;0.00;0.00;;;19.10;66.00;;;;;;4915117;29;20036;-84
2021/07/15 00:35:56;;;;;;;0.82;0.10;;;19.10;66.00;;;;;;4930440;29;20036;-84
2021/07/15 00:38:23;;;;;;;0.20;0.00;;;19.10;66.00;;;;;;4927609;29;20040;-85
2021/07/15 00:40:49;;;;;;;0.10;0.00;;;19.10;66.10;;;;;;4901094;29;20024;-84
2021/07/15 00:43:15;;;;;;;0.25;0.10;;;19.10;66.30;;;;;;4947130;29;20028;-84
2021/07/15 00:45:41;;;;;;;0.10;0.00;;;19.00;66.40;;;;;;4914396;28;20028;-84
2021/07/15 00:48:08;;;;;;;0.45;0.43;;;18.90;66.40;;;;;;4916944;28;20056;-85
2021/07/15 00:50:34;;;;;;;0.63;0.20;;;18.90;66.50;;;;;;4915668;29;20032;-84
2021/07/15 00:53:02;;;;;;;2.30;0.03;;;18.90;66.60;;;;;;4946872;28;20039;-85
2021/07/15 00:55:29;;;;;;;0.43;0.10;;;18.80;66.70;;;;;;4916844;28;20384;-87
2021/07/15 00:57:55;;;;;;;0.32;0.00;;;18.80;66.70;;;;;;4946975;28;20047;-84
2021/07/15 01:00:24;;;;;;;7.70;0.65;;;18.80;66.80;;;;;;4915354;28;20495;-79
2021/07/15 01:02:52;;;;;;;0.57;0.10;;;18.80;66.80;;;;;;4914941;29;20487;-84
2021/07/15 01:05:21;;;;;;;0.20;0.10;;;18.80;66.80;;;;;;4915601;29;20028;-85
2021/07/15 01:07:47;;;;;;;0.25;0.15;;;18.80;66.90;;;;;;4930273;29;20411;-85
2021/07/15 01:10:15;;;;;;;0.95;0.17;;;18.80;66.90;;;;;;4916793;29;20369;-84
2021/07/15 01:13:01;;;;;;;0.30;0.30;;;18.70;66.90;;;;;;4914551;29;20028;-84
2021/07/15 01:15:32;;;;;;;0.35;0.00;;;18.80;67.10;;;;;;4914312;28;20028;-84
2021/07/15 01:18:36;;;;;;;0.00;0.00;;;18.70;67.00;;;;;;4930715;29;20028;-84
2021/07/15 01:21:22;;;;;;;0.00;0.00;;;18.70;67.10;;;;;;4915420;29;20040;-84
2021/07/15 01:24:12;;;;;;;2.72;0.43;;;18.70;67.10;;;;;;4913418;29;20491;-85
2021/07/15 01:27:11;;;;;;;0.55;0.28;;;18.70;67.20;;;;;;4915422;29;20032;-84
2021/07/15 01:30:07;;;;;;;0.00;0.00;;;18.60;67.10;;;;;;4914599;29;20067;-84
2021/07/15 01:33:09;;;;;;;1.02;0.10;;;18.60;67.20;;;;;;4911490;29;20044;-84
2021/07/15 01:36:00;;;;;;;0.22;0.10;;;18.50;67.30;;;;;;4914324;29;20040;-84
2021/07/15 01:38:37;;;;;;;1.38;0.30;;;18.50;67.30;;;;;;4911552;29;20029;-83
2021/07/15 01:41:13;;;;;;;0.57;0.30;;;18.50;67.30;;;;;;4946922;28;20036;-84
2021/07/15 01:43:44;;;;;;;0.40;0.15;;;18.50;67.40;;;;;;4913022;29;20032;-84
2021/07/15 01:46:12;;;;;;;0.30;0.10;;;18.50;67.40;;;;;;4961355;28;20032;-84
2021/07/15 01:48:38;;;;;;;0.25;0.05;;;18.40;67.40;;;;;;4945936;28;20067;-81
2021/07/15 01:51:05;;;;;;;0.30;0.17;;;18.40;67.50;;;;;;4914106;29;20032;-84
2021/07/15 01:53:31;;;;;;;0.20;0.03;;;18.40;67.60;;;;;;4927711;29;20036;-84
2021/07/15 01:55:57;;;;;;;1.67;0.10;;;18.40;67.60;;;;;;4914227;29;20035;-84
2021/07/15 01:58:24;;;;;;;0.85;0.08;;;18.30;67.60;;;;;;4911549;29;20049;-83
2021/07/15 02:00:50;;;;;;;0.05;0.05;;;18.30;67.70;;;;;;4961144;28;20081;-84
2021/07/15 02:03:16;;;;;;;0.43;0.17;;;18.30;67.80;;;;;;4946499;28;20031;-84
2021/07/15 02:05:42;;;;;;;0.00;0.00;;;18.30;67.90;;;;;;4926728;29;20039;-84
2021/07/15 02:08:09;;;;;;;0.52;0.30;;;18.20;67.90;;;;;;4932393;29;20056;-85
2021/07/15 02:10:35;;;;;;;0.57;0.10;;;18.20;68.00;;;;;;4964409;28;20024;-84
2021/07/15 02:13:01;;;;;;;0.17;0.08;;;18.20;68.00;;;;;;4926479;29;20032;-84
2021/07/15 02:15:27;;;;;;;0.00;0.00;;;18.20;68.10;;;;;;4915972;28;20439;-84
2021/07/15 02:17:55;;;;;;;0.00;0.00;;;18.20;68.10;;;;;;4945802;28;20035;-84
2021/07/15 02:20:21;;;;;;;1.27;0.22;;;18.10;68.10;;;;;;4944490;28;20067;-83
2021/07/15 02:22:47;;;;;;;0.25;0.08;;;18.10;68.20;;;;;;4961213;28;20403;-84
2021/07/15 02:25:13;;;;;;;0.10;0.05;;;18.10;68.30;;;;;;4944978;28;20131;-84
2021/07/15 02:27:40;;;;;;;0.32;0.25;;;18.10;68.30;;;;;;4913085;29;20051;-85
2021/07/15 02:30:08;;;;;;;0.10;0.10;;;18.00;68.30;;;;;;4943211;28;20043;-84
2021/07/15 02:32:34;;;;;;;0.30;0.13;;;18.00;68.40;;;;;;4944364;28;20036;-84
2021/07/15 02:35:03;;;;;;;0.65;0.00;;;18.00;68.40;;;;;;4961215;28;20040;-82
2021/07/15 02:37:32;;;;;;;1.08;0.52;;;18.00;68.60;;;;;;4947592;29;20051;-84
2021/07/15 02:39:58;;;;;;;2.10;0.20;;;17.90;68.40;;;;;;4919304;29;20457;-85
2021/07/15 02:42:24;;;;;;;0.10;0.00;;;17.90;68.40;;;;;;4918261;29;20035;-84
2021/07/15 02:44:50;;;;;;;0.30;0.00;;;17.90;68.40;;;;;;4917027;29;20032;-84
2021/07/15 02:47:16;;;;;;;0.10;0.00;;;17.90;68.50;;;;;;4928814;28;20036;-83
2021/07/15 02:49:43;;;;;;;0.55;0.17;;;17.90;68.40;;;;;;4917066;29;20092;-84
2021/07/15 02:52:10;;;;;;;0.25;0.05;;;17.90;68.40;;;;;;4964938;28;20028;-83
2021/07/15 02:54:37;;;;;;;0.00;0.00;;;17.90;68.40;;;;;;4919012;28;20044;-83
2021/07/15 02:57:13;;;;;;;0.32;0.00;;;17.90;68.50;;;;;;4916680;29;20043;-81
2021/07/15 02:59:47;;;;;;;0.00;0.00;;;17.90;68.40;;;;;;4917918;29;20028;-84
2021/07/15 03:02:21;;;;;;;0.40;0.22;;;17.90;68.50;;;;;;4916160;28;20048;-84
2021/07/15 03:04:57;;;;;;;0.10;0.00;;;17.90;68.50;;;;;;4932618;29;20024;-85
2021/07/15 03:07:23;;;;;;;0.60;0.10;;;17.90;68.40;;;;;;4963920;28;20487;-83
2021/07/15 03:09:50;;;;;;;0.80;0.17;;;17.90;68.50;;;;;;4918085;29;20047;-84
2021/07/15 03:12:22;;;;;;;1.27;0.40;;;17.90;68.50;;;;;;4932615;29;20502;-84
2021/07/15 03:14:50;;;;;;;0.65;0.15;;;17.90;68.60;;;;;;4932041;29;20040;-82
2021/07/15 03:17:20;;;;;;;0.60;0.28;;;17.90;68.70;;;;;;4932049;28;20043;-85
2021/07/15 03:19:48;;;;;;;1.38;0.30;;;17.90;68.70;;;;;;4932683;29;20399;-83
2021/07/15 03:22:14;;;;;;;0.10;0.03;;;17.90;68.80;;;;;;4948784;29;20024;-83
2021/07/15 03:24:50;;;;;;;0.38;0.10;;;17.90;68.80;;;;;;4916331;29;20024;-83
2021/07/15 03:27:17;;;;;;;0.28;0.20;;;17.90;68.80;;;;;;4933403;29;20036;-83
2021/07/15 03:29:43;;;;;;;1.20;0.57;;;17.90;68.90;;;;;;4931308;29;20044;-84
2021/07/15 03:32:09;;;;;;;0.50;0.10;;;17.80;68.90;;;;;;4931737;28;20036;-81
2021/07/15 03:34:35;;;;;;;1.02;0.30;;;17.70;69.00;;;;;;4932400;29;20055;-83
2021/07/15 03:37:02;;;;;;;0.03;0.00;;;17.70;69.20;;;;;;4948317;29;20122;-83
2021/07/15 03:39:28;;;;;;;0.28;0.10;;;17.60;69.30;;;;;;4931943;29;20430;-81
2021/07/15 03:41:54;;;;;;;0.30;0.00;;;17.60;69.50;;;;;;4916180;29;20028;-83
2021/07/15 03:44:20;;;;;;;1.48;0.15;;;17.50;69.60;;;;;;4912637;29;20025;-83
2021/07/15 03:46:47;;;;;;;0.10;0.10;;;17.50;69.70;;;;;;4946775;28;20039;-86
2021/07/15 03:49:18;;;;;;;0.65;0.10;;;17.40;69.70;;;;;;4964097;28;20040;-83
2021/07/15 03:51:44;;;;;;;0.38;0.25;;;17.40;69.80;;;;;;4947714;29;20482;-84
2021/07/15 03:54:12;;;;;;;0.28;0.10;;;17.40;69.80;;;;;;4917626;28;20044;-83
2021/07/15 03:56:38;;;;;;;0.47;0.28;;;17.50;69.80;;;;;;4917726;28;20063;-84
2021/07/15 03:59:05;;;;;;;0.75;0.20;;;17.50;69.70;;;;;;4915522;29;20526;-84
2021/07/15 04:01:31;;;;;;;0.47;0.17;;;17.50;69.60;;;;;;4913462;28;20388;-83
2021/07/15 04:03:58;;;;;;;1.80;0.30;;;17.60;69.60;;;;;;4947776;29;20039;-84
2021/07/15 04:06:24;;;;;;;0.63;0.20;;;17.60;69.60;;;;;;4915310;29;20036;-84
2021/07/15 04:08:50;;;;;;;1.77;0.10;;;17.60;69.60;;;;;;4931205;29;20043;-82
2021/07/15 04:11:16;;;;;;;0.65;0.17;;;17.60;69.50;;;;;;4915647;29;20039;-84
2021/07/15 04:13:43;;;;;;;1.52;0.20;;;17.60;69.60;;;;;;4914890;29;20618;-83
2021/07/15 04:16:36;;;;;;;1.90;0.47;;;17.60;69.70;;;;;;4962809;28;20032;-83
2021/07/15 04:19:04;;;;;;;0.70;0.25;;;17.50;69.80;;;;;;4945709;29;20487;-83
2021/07/15 04:21:30;;;;;;;1.17;0.32;;;17.50;69.80;;;;;;4915213;29;20048;-84
2021/07/15 04:23:56;;;;;;;1.25;0.47;;;17.50;69.90;;;;;;4931140;29;20028;-83
2021/07/15 04:26:23;;;;;;;2.33;0.30;;;17.50;70.00;;;;;;4927993;29;20043;-84
2021/07/15 04:28:49;;;;;;;0.47;0.15;;;17.50;70.80;;;;;;4946602;29;20380;-84
2021/07/15 04:31:30;;;;;;;0.63;0.10;;;17.50;70.10;;;;;;4962966;28;20028;-84
2021/07/15 04:33:56;;;;;;;0.52;0.28;;;17.50;70.10;;;;;;4916729;29;20050;-83
2021/07/15 04:36:23;;;;;;;0.93;0.28;;;17.50;70.10;;;;;;4946490;28;20047;-84
2021/07/15 04:38:49;;;;;;;0.32;0.05;;;17.50;70.20;;;;;;4914994;29;20043;-83
2021/07/15 04:41:15;;;;;;;1.80;0.20;;;17.50;70.20;;;;;;4915212;29;20384;-83
2021/07/15 04:43:42;;;;;;;1.20;0.47;;;17.50;70.30;;;;;;4914296;29;20047;-84
2021/07/15 04:46:10;;;;;;;1.77;0.35;;;17.40;70.30;;;;;;4962608;28;20040;-84
2021/07/15 04:48:36;;;;;;;0.10;0.00;;;17.40;70.40;;;;;;4945887;29;20043;-83
2021/07/15 04:51:02;;;;;;;0.25;0.00;;;17.50;70.40;;;;;;4930508;29;20032;-83
2021/07/15 04:53:28;;;;;;;0.57;0.10;;;17.50;70.40;;;;;;4927905;29;20033;-85
2021/07/15 04:55:54;;;;;;;0.25;0.20;;;17.50;70.40;;;;;;4929967;29;20040;-83
2021/07/15 04:58:22;;;;;;;0.93;0.25;;;17.50;70.40;;;;;;4943535;29;20044;-84
2021/07/15 05:00:48;;;;;;;1.15;0.20;;;17.50;70.50;;;;;;4961927;28;20403;-83
2021/07/15 05:03:16;;;;;;;0.80;0.40;;;17.60;70.50;;;;;;4946905;28;20056;-84
2021/07/15 05:05:43;;;;;;;1.10;0.60;;;17.50;70.50;;;;;;4913861;29;20052;-83
2021/07/15 05:08:09;;;;;;;1.50;0.30;;;17.60;70.50;;;;;;4915789;29;20499;-82
2021/07/15 05:10:35;;;;;;;0.68;0.32;;;17.60;70.50;;;;;;4929505;29;20056;-83
2021/07/15 05:13:01;;;;;;;0.82;0.47;;;17.60;70.50;;;;;;4915711;29;20456;-85
2021/07/15 05:15:27;;;;;;;0.93;0.43;;;17.60;70.50;;;;;;4915213;28;20043;-83
2021/07/15 05:17:53;;;;;;;1.25;0.45;;;17.60;70.60;;;;;;4930222;29;20031;-83
2021/07/15 05:20:20;;;;;;;0.43;0.10;;;17.60;70.60;;;;;;4915675;29;20027;-84
2021/07/15 05:22:46;;;;;;;0.75;0.35;;;17.70;70.60;;;;;;4915985;29;20044;-83
2021/07/15 05:25:12;;;;;;;1.08;0.25;;;17.70;70.80;;;;;;4915798;29;20131;-83
2021/07/15 05:27:38;;;;;;;1.33;0.30;;;17.70;70.80;;;;;;4915588;29;20028;-84
2021/07/15 05:30:08;;;;;;;0.35;0.17;;;17.70;70.80;;;;;;4915098;28;20047;-83
2021/07/15 05:32:34;;;;;;;0.20;0.00;;;17.60;70.80;;;;;;4915603;29;20047;-84
2021/07/15 05:35:00;;;;;;;1.98;0.57;;;17.70;70.80;;;;;;4930234;29;20028;-83
2021/07/15 05:37:26;;;;;;;0.35;0.10;;;17.70;70.80;;;;;;4912225;29;20032;-84
2021/07/15 05:39:53;;;;;;;1.52;0.52;;;17.70;70.80;;;;;;4915686;29;20035;-83
2021/07/15 05:42:19;;;;;;;0.80;0.22;;;17.80;70.80;;;;;;4930131;29;20032;-84
2021/07/15 05:44:45;;;;;;;4.07;0.40;;;17.80;70.80;;;;;;4913760;29;20035;-83
2021/07/15 05:47:11;;;;;;;0.60;0.40;;;17.80;70.80;;;;;;4915108;28;20062;-84
2021/07/15 05:49:37;;;;;;;0.55;0.13;;;17.80;70.80;;;;;;4912914;29;20040;-83
2021/07/15 05:52:04;;;;;;;2.55;0.17;;;17.80;70.90;;;;;;4946708;29;20039;-83
2021/07/15 05:54:31;;;;;;;1.75;0.40;;;17.80;70.90;;;;;;4931651;29;20499;-84
2021/07/15 05:56:57;;;;;;;0.65;0.25;;;17.80;70.90;;;;;;4946082;28;20059;-83
2021/07/15 05:59:23;;;;;;;0.90;0.30;;;17.90;70.90;;;;;;4927032;29;20029;-84
2021/07/15 06:01:49;;;;;;;0.30;0.17;;;18.00;70.90;;;;;;4914883;28;20384;-83
2021/07/15 06:04:15;;;;;;;1.13;0.20;;;18.00;70.80;;;;;;4915901;29;20032;-85
2021/07/15 06:06:41;;;;;;;0.82;0.30;;;18.10;70.80;;;;;;4915939;28;20087;-84
2021/07/15 06:09:08;;;;;;;1.25;0.45;;;18.10;70.70;;;;;;4918557;29;20048;-84
2021/07/15 06:11:34;;;;;;;4.78;0.75;;;18.20;70.70;;;;;;4931799;29;20385;-83
2021/07/15 06:14:00;;;;;;;0.22;0.10;;;18.20;70.70;;;;;;4918833;29;20399;-84
2021/07/15 06:16:26;;;;;;;0.65;0.13;;;18.20;70.80;;;;;;4918481;28;20032;-84
2021/07/15 06:18:52;;;;;;;0.38;0.03;;;18.30;70.70;;;;;;4950013;29;20035;-83
2021/07/15 06:21:18;;;;;;;0.00;0.00;;;18.20;70.70;;;;;;4918726;29;20039;-83
2021/07/15 06:23:45;;;;;;;2.05;0.30;;;18.20;70.80;;;;;;4918624;29;20040;-84
2021/07/15 06:26:11;;;;;;;1.35;0.20;;;18.20;70.80;;;;;;4933179;29;20032;-84
2021/07/15 06:28:37;;;;;;;0.57;0.13;;;18.20;70.80;;;;;;4916412;29;20044;-85
2021/07/15 06:31:04;;;;;;;0.50;0.50;;;18.20;70.80;;;;;;4918620;28;20032;-84
2021/07/15 06:33:30;;;;;;;0.88;0.45;;;18.30;70.90;;;;;;4933170;29;20043;-84
2021/07/15 06:35:56;;;;;;;0.43;0.17;;;18.30;70.90;;;;;;4918429;29;20027;-84
2021/07/15 06:38:24;;;;;;;1.20;0.65;;;18.30;70.90;;;;;;4918740;28;20515;-87
2021/07/15 06:40:55;;;;;;;0.77;0.22;;;18.30;70.90;;;;;;4902242;29;20028;-85
2021/07/15 06:43:21;;;;;;;3.67;0.77;;;18.40;70.90;;;;;;4930375;29;20029;-85
2021/07/15 06:45:47;;;;;;;0.50;0.35;;;18.50;70.80;;;;;;4948446;28;20028;-83
2021/07/15 06:48:13;;;;;;;1.02;0.38;;;18.50;70.70;;;;;;4918191;29;20039;-84
2021/07/15 06:50:41;;;;;;;1.02;0.25;;;18.50;70.70;;;;;;4915787;29;20036;-87
2021/07/15 06:53:07;;;;;;;0.20;0.13;;;18.50;70.70;;;;;;4917387;29;20052;-84
2021/07/15 06:55:33;;;;;;;0.95;0.55;;;18.60;70.80;;;;;;4918246;29;20032;-84
2021/07/15 06:57:59;;;;;;;2.40;0.75;;;18.60;70.70;;;;;;4918475;29;20267;-84
2021/07/15 07:00:25;;;;;;;0.10;0.10;;;18.60;70.70;;;;;;4917533;28;20044;-84
2021/07/15 07:02:51;;;;;;;2.08;0.30;;;18.60;70.80;;;;;;4917931;29;20475;-85
2021/07/15 07:05:17;;;;;;;1.83;0.35;;;18.60;70.80;;;;;;4918004;29;20032;-84
2021/07/15 07:07:44;;;;;;;1.10;0.20;;;18.70;70.70;;;;;;4916042;29;20052;-84
2021/07/15 07:10:11;;;;;;;0.57;0.30;;;18.70;70.60;;;;;;4964760;28;20040;-84
2021/07/15 07:12:37;;;;;;;3.72;0.25;;;18.70;70.60;;;;;;4918602;28;20051;-84
2021/07/15 07:15:08;;;;;;;0.73;0.20;;;18.70;70.60;;;;;;4916547;28;20059;-84
2021/07/15 07:17:34;;;;;;;1.75;0.25;;;18.70;70.60;;;;;;4913292;29;20027;-84
2021/07/15 07:20:00;;;;;;;4.43;0.57;;;18.80;70.60;;;;;;4903888;29;20040;-86
2021/07/15 07:22:26;;;;;;;4.95;0.70;;;18.80;70.60;;;;;;4917727;29;20390;-84
2021/07/15 07:24:52;;;;;;;0.30;0.08;;;18.90;70.60;;;;;;4948229;29;20404;-86
2021/07/15 07:27:18;;;;;;;0.25;0.20;;;18.90;70.50;;;;;;4916445;29;20043;-84
2021/07/15 07:29:44;;;;;;;0.05;0.00;;;18.90;70.50;;;;;;4915885;29;20411;-84
2021/07/15 07:32:11;;;;;;;0.28;0.10;;;18.90;70.50;;;;;;4917269;28;20037;-84
2021/07/15 07:34:37;;;;;;;0.85;0.30;;;19.00;70.50;;;;;;4915287;29;20032;-85
2021/07/15 07:37:03;;;;;;;2.45;0.65;;;19.00;70.50;;;;;;4917693;29;20055;-84
2021/07/15 07:39:29;;;;;;;0.30;0.20;;;19.10;70.40;;;;;;4947748;28;20411;-85
2021/07/15 07:41:55;;;;;;;0.10;0.10;;;19.10;70.20;;;;;;4917315;29;20032;-84
2021/07/15 07:44:21;;;;;;;0.15;0.05;;;19.20;70.20;;;;;;4917265;29;20032;-84
2021/07/15 07:46:48;;;;;;;1.75;0.40;;;19.20;70.10;;;;;;4916820;28;20028;-84
2021/07/15 07:49:14;;;;;;;2.28;0.63;;;19.30;70.10;;;;;;4948369;29;20040;-84
2021/07/15 07:51:40;;;;;;;1.55;0.43;;;19.30;70.10;;;;;;4916758;29;20028;-85
2021/07/15 07:54:06;;;;;;;1.08;0.10;;;19.40;70.00;;;;;;4931747;29;20051;-84
2021/07/15 07:56:32;;;;;;;1.65;0.45;;;19.50;70.00;;;;;;4913805;29;20506;-85
2021/07/15 07:59:00;;;;;;;0.10;0.00;;;19.50;69.80;;;;;;4917060;29;20028;-83
2021/07/15 08:01:27;;;;;;;0.75;0.47;;;19.70;69.60;;;;;;4917381;28;20043;-85
2021/07/15 08:03:54;;;;;;;0.30;0.15;;;19.80;69.50;;;;;;4917213;29;20123;-83
2021/07/15 08:06:21;;;;;;;1.08;0.50;;;20.00;69.20;;;;;;4916518;29;20028;-84
2021/07/15 08:08:47;;;;;;;3.20;0.43;;;20.10;69.00;;;;;;4915324;29;20048;-83
2021/07/15 08:11:13;;;;;;;1.95;0.20;;;20.20;68.90;;;;;;4917035;29;20040;-84
2021/07/15 08:13:39;;;;;;;0.20;0.00;;;20.20;68.80;;;;;;4917423;28;20036;-84
2021/07/15 08:16:05;;;;;;;1.75;0.45;;;20.20;68.90;;;;;;4917056;28;20043;-84
2021/07/15 08:18:31;;;;;;;0.93;0.65;;;20.20;69.00;;;;;;4917624;28;20044;-85
2021/07/15 08:20:57;;;;;;;2.45;0.30;;;20.20;69.00;;;;;;4912592;29;20045;-84
2021/07/15 08:23:23;;;;;;;2.25;0.52;;;20.30;69.00;;;;;;4906302;29;20024;-83
2021/07/15 08:25:49;;;;;;;0.60;0.25;;;20.30;69.00;;;;;;4916670;29;20040;-86
2021/07/15 08:28:16;;;;;;;1.33;0.50;;;20.30;69.00;;;;;;4916914;29;20032;-84
2021/07/15 08:30:42;;;;;;;3.88;0.25;;;20.20;69.10;;;;;;4913947;28;20047;-84
2021/07/15 08:33:08;;;;;;;0.40;0.10;;;20.30;69.10;;;;;;4916543;29;20051;-84
2021/07/15 08:35:36;;;;;;;0.82;0.22;;;20.30;69.10;;;;;;4916046;29;20028;-84
2021/07/15 08:38:02;;;;;;;2.22;0.30;;;20.30;69.00;;;;;;4916372;29;20495;-84
2021/07/15 08:40:28;;;;;;;0.88;0.32;;;20.30;69.80;;;;;;4947108;28;20063;-85
2021/07/15 08:42:55;;;;;;;0.75;0.30;;;20.30;69.10;;;;;;4947079;29;20039;-84
2021/07/15 08:45:21;;;;;;;0.93;0.40;;;20.30;69.10;;;;;;4915764;28;20031;-84
2021/07/15 08:47:48;;;;;;;2.00;0.10;;;20.40;69.10;;;;;;4914791;29;20040;-84
2021/07/15 08:50:16;;;;;;;0.60;0.10;;;20.40;69.00;;;;;;4930512;29;20036;-84
2021/07/15 08:52:42;;;;;;;1.83;0.38;;;20.50;68.80;;;;;;4930261;29;20043;-84
2021/07/15 08:57:38;;;;;;;0.10;0.00;;;20.70;68.70;;;;;;4911805;29;20041;-84
2021/07/15 09:00:06;;;;;;;0.45;0.10;;;20.70;68.50;;;;;;4910099;28;20028;-83
2021/07/15 09:02:32;;;;;;;0.60;0.10;;;20.70;68.60;;;;;;4912655;29;20360;-85
2021/07/15 09:04:59;;;;;;;0.88;0.22;;;20.70;68.60;;;;;;4914244;29;20039;-84
2021/07/15 09:07:25;;;;;;;0.68;0.30;;;20.70;68.50;;;;;;4912064;29;20458;-84
2021/07/15 09:09:51;;;;;;;0.30;0.10;;;20.80;68.50;;;;;;4930995;29;20040;-84
2021/07/15 09:12:17;;;;;;;1.23;0.30;;;20.90;68.30;;;;;;4930509;29;20471;-84
2021/07/15 09:14:48;;;;;;;8.93;0.43;;;21.00;68.30;;;;;;4915697;29;20036;-84
2021/07/15 09:17:15;;;;;;;1.02;0.28;;;21.00;68.10;;;;;;4914306;28;20035;-86
2021/07/15 09:19:42;;;;;;;0.20;0.10;;;21.10;67.80;;;;;;4914255;29;20040;-84
2021/07/15 09:22:09;;;;;;;3.70;0.63;;;21.20;67.70;;;;;;4916748;29;20048;-84
2021/07/15 09:24:39;;;;;;;3.83;0.30;;;21.40;67.60;;;;;;4916756;28;20044;-84
2021/07/15 09:27:14;;;;;;;2.40;0.30;;;21.70;67.10;;;;;;4916451;28;20036;-84
2021/07/15 09:29:41;;;;;;;0.15;0.05;;;21.90;66.60;;;;;;4915697;29;20376;-85
2021/07/15 09:32:07;;;;;;;4.95;0.57;;;22.10;66.30;;;;;;4913908;28;20079;-84
2021/07/15 09:34:34;;;;;;;0.88;0.25;;;22.20;66.00;;;;;;4915801;29;20463;-85
2021/07/15 09:37:09;;;;;;;0.80;0.20;;;22.30;65.90;;;;;;4916180;29;20051;-85
2021/07/15 09:39:44;;;;;;;0.47;0.22;;;22.40;66.10;;;;;;4916094;29;20029;-84
2021/07/15 09:42:20;;;;;;;1.00;0.40;;;22.80;65.70;;;;;;4917879;29;20036;-85
2021/07/15 09:44:50;;;;;;;0.20;0.10;;;23.20;64.70;;;;;;4917541;29;20028;-85
2021/07/15 09:47:39;;;;;;;0.50;0.30;;;23.50;64.30;;;;;;4918886;28;20040;-84
2021/07/15 09:50:17;;;;;;;0.47;0.10;;;23.70;64.00;;;;;;4952734;28;20063;-84
2021/07/15 09:52:44;;;;;;;1.35;0.40;;;23.90;63.70;;;;;;4919348;29;20043;-84
2021/07/15 09:55:23;;;;;;;0.38;0.28;;;24.00;63.30;;;;;;4950133;29;20036;-85
2021/07/15 09:58:03;;;;;;;0.17;0.00;;;24.10;63.20;;;;;;4919508;29;20391;-85
2021/07/15 10:00:35;;;;;;;0.88;0.35;;;24.00;63.30;;;;;;4949101;28;20043;-85
2021/07/15 10:03:02;;;;;;;0.00;0.00;;;24.10;63.50;;;;;;4919001;29;20476;-85
2021/07/15 10:05:28;;;;;;;0.15;0.10;;;24.10;63.40;;;;;;4946799;28;20048;-85
2021/07/15 10:08:13;;;;;;;1.20;0.22;;;24.30;63.30;;;;;;4918588;29;20040;-87
2021/07/15 10:10:39;;;;;;;2.47;0.45;;;24.40;63.00;;;;;;4919358;29;20036;-87
2021/07/15 10:13:31;;;;;;;0.20;0.10;;;24.50;63.00;;;;;;4919480;29;20055;-87
2021/07/15 10:15:58;;;;;;;2.25;0.80;;;24.50;62.90;;;;;;4917136;28;20406;-88
2021/07/15 10:18:49;;;;;;;0.80;0.00;;;24.70;62.80;;;;;;4931993;29;20043;-87
2021/07/15 10:21:16;;;;;;;0.95;0.25;;;24.90;62.50;;;;;;4945899;29;20059;-87
2021/07/15 10:23:48;;;;;;;0.80;0.30;;;25.00;62.30;;;;;;4900411;29;20040;-87
2021/07/15 10:26:14;;;;;;;1.85;0.40;;;25.10;62.00;;;;;;4903182;29;20032;-88
2021/07/15 10:28:46;;;;;;;0.47;0.10;;;25.20;61.80;;;;;;4934348;29;20048;-89
2021/07/15 10:31:16;;;;;;;0.03;0.00;;;25.30;61.60;;;;;;4948539;28;20399;-88
2021/07/15 10:33:48;;;;;;;0.50;0.00;;;25.40;61.40;;;;;;4946433;29;20061;-87
2021/07/15 10:36:14;;;;;;;0.13;0.00;;;25.60;61.20;;;;;;4961198;28;20048;-84
2021/07/15 10:38:42;;;;;;;0.50;0.08;;;25.80;60.90;;;;;;4916050;29;20069;-84
2021/07/15 10:41:09;;;;;;;2.50;0.47;;;25.80;60.60;;;;;;4933764;29;20490;-85
2021/07/15 10:43:36;;;;;;;0.25;0.13;;;25.80;60.60;;;;;;4949877;29;20514;-84
2021/07/15 10:46:04;;;;;;;0.65;0.45;;;25.80;60.60;;;;;;4913639;28;20043;-84
2021/07/15 10:48:31;;;;;;;3.20;0.70;;;25.90;60.60;;;;;;4932843;29;20538;-86
2021/07/15 10:50:57;;;;;;;2.30;0.28;;;26.00;60.00;;;;;;4929616;29;20432;-84
2021/07/15 10:53:23;;;;;;;1.02;0.40;;;26.00;60.00;;;;;;4937374;29;20036;-85
2021/07/15 10:55:52;;;;;;;0.40;0.10;;;26.10;60.00;;;;;;4917115;29;20066;-82
2021/07/15 10:58:42;;;;;;;0.57;0.17;;;26.20;59.80;;;;;;4965188;28;20073;-86
2021/07/15 11:01:09;;;;;;;0.13;0.07;;;26.30;59.60;;;;;;4916893;28;20052;-85
2021/07/15 11:03:35;;;;;;;0.47;0.10;;;26.40;59.60;;;;;;4932835;29;20292;-84
2021/07/15 11:06:01;;;;;;;0.30;0.10;;;26.60;59.40;;;;;;4932734;29;20028;-85
2021/07/15 11:08:49;;;;;;;0.40;0.10;;;26.60;59.20;;;;;;4913764;29;20044;-86
2021/07/15 11:11:16;;;;;;;4.13;0.20;;;26.80;59.00;;;;;;4918264;29;20414;-85
2021/07/15 11:13:44;;;;;;;0.10;0.10;;;26.90;58.80;;;;;;4915945;29;20055;-85
2021/07/15 11:16:10;;;;;;;1.45;0.43;;;26.90;59.30;;;;;;4947832;28;20542;-87
2021/07/15 11:21:26;;;;;;;0.38;0.10;;;26.90;58.40;;;;;;4918011;29;20043;-86
2021/07/15 11:23:53;;;;;;;0.20;0.00;;;26.90;58.50;;;;;;4917754;29;20032;-85
2021/07/15 11:26:30;;;;;;;0.70;0.17;;;26.90;58.30;;;;;;4917828;29;20020;-85
2021/07/15 11:28:56;;;;;;;0.30;0.08;;;26.80;58.10;;;;;;4903773;29;20056;-85
2021/07/15 11:31:47;;;;;;;0.17;0.00;;;26.90;58.20;;;;;;4917592;28;20403;-83
2021/07/15 11:34:35;;;;;;;0.52;0.00;;;26.90;58.00;;;;;;4948073;29;20392;-85
2021/07/15 11:37:26;;;;;;;0.30;0.10;;;27.10;58.40;;;;;;4911210;29;20059;-84
2021/07/15 11:39:53;;;;;;;0.50;0.10;;;27.20;57.70;;;;;;4917528;29;20047;-85
2021/07/15 11:42:23;;;;;;;0.98;0.20;;;27.20;57.40;;;;;;4917419;29;20040;-87
2021/07/15 11:45:06;;;;;;;0.52;0.22;;;27.10;57.50;;;;;;4916293;29;20039;-84
2021/07/15 11:47:44;;;;;;;0.10;0.08;;;27.10;57.50;;;;;;4916509;29;20047;-86
2021/07/15 11:50:33;;;;;;;0.47;0.10;;;27.10;57.40;;;;;;4916974;29;20036;-85
2021/07/15 11:53:17;;;;;;;0.38;0.13;;;27.20;57.30;;;;;;4901903;29;20016;-85
2021/07/15 11:55:44;;;;;;;0.70;0.35;;;27.40;57.00;;;;;;4917199;29;20400;-85
2021/07/15 11:58:33;;;;;;;0.10;0.00;;;27.70;56.70;;;;;;4917331;29;20490;-85
2021/07/15 12:01:32;;;;;;;0.52;0.10;;;28.00;56.40;;;;;;4909541;28;20503;-84
2021/07/15 12:04:05;;;;;;;0.30;0.10;;;28.40;56.10;;;;;;4896074;29;20052;-85
2021/07/15 12:06:38;;;;;;;0.77;0.43;;;28.60;55.70;;;;;;4895912;29;20515;-86
2021/07/15 12:09:12;;;;;;;0.50;0.10;;;28.70;55.60;;;;;;4896009;29;20049;-85
2021/07/15 12:11:39;;;;;;;4.10;0.25;;;28.90;55.40;;;;;;4895464;29;20538;-84
2021/07/15 12:14:06;;;;;;;0.10;0.00;;;29.10;55.20;;;;;;4895707;29;20404;-84
2021/07/15 12:16:34;;;;;;;0.30;0.00;;;29.30;55.00;;;;;;4895673;29;20036;-86
2021/07/15 12:19:04;;;;;;;0.40;0.13;;;29.40;54.70;;;;;;4911990;29;20043;-85
2021/07/15 12:21:31;;;;;;;0.65;0.10;;;29.40;54.70;;;;;;4895544;29;20381;-85
2021/07/15 12:23:58;;;;;;;0.47;0.20;;;29.10;54.90;;;;;;4911723;29;20040;-84
2021/07/15 12:26:24;;;;;;;0.57;0.38;;;29.00;55.10;;;;;;4895287;29;20048;-84
2021/07/15 12:28:51;;;;;;;5.53;0.15;;;28.80;55.10;;;;;;4896348;29;20452;-85
2021/07/15 12:31:20;;;;;;;0.08;0.00;;;28.70;55.20;;;;;;4895570;29;20056;-86
2021/07/15 12:33:49;;;;;;;0.17;0.13;;;28.70;55.00;;;;;;4911231;29;20152;-85
2021/07/15 12:36:25;;;;;;;0.20;0.00;;;28.50;54.90;;;;;;4911725;29;20400;-84
2021/07/15 12:38:52;;;;;;;0.32;0.22;;;28.20;55.10;;;;;;4914151;29;20040;-84
2021/07/15 12:41:32;;;;;;;1.00;0.20;;;28.00;55.30;;;;;;4912171;29;20060;-85
2021/07/15 12:43:59;;;;;;;1.20;0.45;;;27.90;55.30;;;;;;4946139;29;20032;-85
2021/07/15 12:46:36;;;;;;;0.20;0.10;;;28.00;55.20;;;;;;4916026;28;20040;-85
2021/07/15 12:49:18;;;;;;;0.20;0.00;;;28.10;54.90;;;;;;4914844;29;20039;-85
2021/07/15 12:51:51;;;;;;;5.18;0.20;;;28.10;54.70;;;;;;4915050;29;20044;-85
2021/07/15 12:54:20;;;;;;;0.30;0.10;;;28.10;54.50;;;;;;4931810;29;20039;-85
2021/07/15 12:56:46;;;;;;;0.10;0.00;;;28.20;54.30;;;;;;4916277;28;20058;-85
2021/07/15 12:59:13;;;;;;;0.05;0.00;;;28.20;54.10;;;;;;4914760;29;20395;-85
2021/07/15 13:01:42;;;;;;;0.30;0.03;;;28.40;54.00;;;;;;4915909;28;20032;-84
2021/07/15 13:04:10;;;;;;;0.05;0.00;;;28.50;53.80;;;;;;4947241;29;20039;-84